createdAt,value
2023-03-28T00:12:06.192Z,2.27
2023-03-28T00:25:40.738Z,2.03
2023-03-28T00:31:40.595Z,1.95
2023-03-28T00:34:18.525Z,1.85
2023-03-28T00:37:08.522Z,1.70
2023-03-28T00:39:42.100Z,1.65
2023-03-28T00:42:36.076Z,1.75
2023-03-28T00:45:43.859Z,1.60
2023-03-28T00:48:40.185Z,1.55
2023-03-28T00:51:38.829Z,1.52
2023-03-28T00:54:13.684Z,1.39
2023-03-28T00:57:23.199Z,1.41
2023-03-28T01:00:27.525Z,1.31
2023-03-28T01:10:48.496Z,1.23
2023-03-28T01:40:55.836Z,0.52
2023-03-28T01:50:43.429Z,0.53
2023-03-28T01:54:02.592Z,0.52
2023-03-28T03:21:59.071Z,0.02
2023-03-28T03:24:29.423Z,-0.03
2023-03-28T03:30:49.750Z,0.01
2023-03-28T03:39:58.917Z,-0.24
2023-03-28T03:42:27.517Z,-0.29
2023-03-28T03:48:57.046Z,-0.45
2023-03-28T03:52:16.710Z,-0.37
2023-03-28T03:55:16.734Z,-0.37
2023-03-28T03:57:46.671Z,-0.34
2023-03-28T04:07:02.182Z,-0.47
2023-03-28T06:33:49.237Z,0.77
2023-03-28T06:36:16.608Z,0.81
2023-03-28T06:38:43.307Z,0.90
2023-03-28T06:41:10.180Z,0.97
2023-03-28T06:43:37.454Z,0.96
2023-03-28T06:46:06.060Z,1.07
2023-03-28T06:48:36.237Z,1.11
2023-03-28T06:51:05.892Z,1.28
2023-03-28T06:53:35.430Z,1.34
2023-03-28T06:56:04.546Z,1.42
2023-03-28T06:58:32.667Z,1.45
2023-03-28T07:01:02.096Z,1.56
2023-03-28T07:03:30.598Z,1.73
2023-03-28T07:06:03.245Z,1.82
2023-03-28T07:08:31.012Z,1.89
2023-03-28T07:11:01.587Z,2.03
2023-03-28T07:13:29.168Z,2.10
2023-03-28T07:16:08.045Z,2.26
2023-03-28T07:18:35.351Z,2.68
2023-03-28T07:21:10.758Z,3.41
2023-03-28T07:23:39.404Z,4.05
2023-03-28T07:26:09.065Z,4.77
2023-03-28T07:28:46.618Z,4.95
2023-03-28T07:31:14.876Z,5.19
2023-03-28T07:33:49.257Z,5.31
2023-03-28T07:36:22.093Z,5.34
2023-03-28T07:38:49.753Z,5.36
2023-03-28T07:41:17.233Z,5.55
2023-03-28T07:43:44.205Z,5.73
2023-03-28T07:46:14.596Z,6.03
2023-03-28T07:48:43.349Z,5.39
2023-03-28T07:51:10.989Z,5.46
2023-03-28T07:53:38.411Z,6.15
2023-03-28T07:56:10.848Z,6.29
2023-03-28T07:58:41.621Z,6.41
2023-03-28T08:01:12.775Z,6.42
2023-03-28T08:03:41.890Z,5.95
2023-03-28T08:06:20.662Z,6.53
2023-03-28T08:08:58.215Z,6.65
2023-03-28T08:11:24.978Z,6.71
2023-03-28T08:13:53.625Z,7.01
2023-03-28T08:16:20.958Z,6.94
2023-03-28T08:18:54.503Z,7.38
2023-03-28T08:21:28.616Z,7.10
2023-03-28T08:23:55.818Z,8.16
2023-03-28T08:26:25.913Z,8.24
2023-03-28T08:28:54.863Z,8.02
2023-03-28T08:31:26.847Z,7.81
2023-03-28T08:33:55.184Z,8.19
2023-03-28T08:36:24.676Z,7.35
2023-03-28T08:38:52.232Z,8.43
2023-03-28T08:41:47.763Z,8.06
2023-03-28T08:44:26.670Z,8.24
2023-03-28T08:46:59.620Z,8.69
2023-03-28T08:49:26.671Z,9.77
2023-03-28T08:51:58.770Z,7.66
2023-03-28T08:54:34.342Z,9.84
2023-03-28T08:57:04.320Z,9.37
2023-03-28T09:00:01.636Z,9.16
2023-03-28T09:02:29.935Z,9.54
2023-03-28T09:05:21.638Z,10.30
2023-03-28T09:08:06.348Z,9.88
2023-03-28T09:10:44.594Z,9.67
2023-03-28T09:13:14.046Z,8.95
2023-03-28T09:16:06.986Z,8.57
2023-03-28T09:19:02.708Z,8.34
2023-03-28T09:21:53.967Z,7.81
2023-03-28T09:24:44.370Z,8.44
2023-03-28T09:27:28.194Z,9.03
2023-03-28T09:36:45.430Z,8.06
2023-03-28T09:39:55.572Z,8.04
2023-03-28T09:42:44.237Z,7.48
2023-03-28T09:45:30.590Z,7.89
2023-03-28T09:47:57.986Z,8.67
2023-03-28T09:50:24.849Z,8.68
2023-03-28T09:52:51.878Z,9.39
2023-03-28T09:55:24.558Z,9.41
2023-03-28T09:58:08.312Z,9.27
2023-03-28T10:00:37.617Z,9.23
2023-03-28T10:03:05.327Z,8.47
2023-03-28T10:05:40.327Z,9.13
2023-03-28T10:08:41.036Z,9.70
2023-03-28T10:11:19.904Z,9.64
2023-03-28T10:13:48.591Z,9.98
2023-03-28T10:16:23.305Z,9.70
2023-03-28T10:18:50.070Z,9.27
2023-03-28T10:21:24.112Z,8.79
2023-03-28T10:24:00.312Z,9.22
2023-03-28T10:26:28.513Z,10.03
2023-03-28T10:29:01.095Z,9.43
2023-03-28T10:31:32.161Z,9.37
2023-03-28T10:34:00.582Z,9.64
2023-03-28T10:36:34.086Z,10.08
2023-03-28T10:39:24.205Z,9.41
2023-03-28T10:42:01.018Z,9.63
2023-03-28T10:44:27.876Z,9.47
2023-03-28T10:46:57.253Z,9.47
2023-03-28T10:49:24.507Z,8.89
2023-03-28T10:51:51.573Z,9.65
2023-03-28T10:54:39.980Z,9.97
2023-03-28T10:57:12.580Z,9.67
2023-03-28T10:59:49.904Z,9.82
2023-03-28T11:02:51.957Z,10.39
2023-03-28T11:05:29.183Z,9.94
2023-03-28T11:08:25.681Z,10.06
2023-03-28T11:11:22.500Z,10.18
2023-03-28T11:13:59.588Z,9.98
2023-03-28T11:16:53.694Z,9.63
2023-03-28T11:19:42.968Z,10.18
2023-03-28T11:22:52.498Z,9.51
2023-03-28T11:26:00.563Z,9.74
2023-03-28T11:28:52.902Z,9.77
2023-03-28T11:31:28.974Z,10.09
2023-03-28T11:34:13.572Z,10.48
2023-03-28T11:36:53.672Z,10.12
2023-03-28T11:39:44.715Z,9.81
2023-03-28T11:42:29.673Z,10.05
2023-03-28T11:45:19.323Z,10.05
2023-03-28T11:47:51.114Z,10.39
2023-03-28T11:50:40.550Z,9.99
2023-03-28T11:53:21.716Z,10.28
2023-03-28T11:55:53.093Z,9.63
2023-03-28T11:58:25.144Z,9.18
2023-03-28T12:01:08.509Z,9.22
2023-03-28T12:03:54.964Z,9.88
2023-03-28T12:06:37.426Z,10.09
2023-03-28T12:09:25.867Z,10.15
2023-03-28T12:12:11.837Z,10.23
2023-03-28T12:14:55.683Z,10.79
2023-03-28T12:17:30.456Z,11.29
2023-03-28T12:19:57.815Z,12.18
2023-03-28T12:22:40.554Z,12.41
2023-03-28T12:25:31.462Z,12.52
2023-03-28T12:28:14.664Z,13.04
2023-03-28T12:30:49.106Z,12.08
2023-03-28T12:33:37.147Z,13.02
2023-03-28T12:36:18.786Z,12.00
2023-03-28T12:39:10.293Z,12.55
2023-03-28T12:41:40.013Z,11.71
2023-03-28T12:44:23.583Z,11.90
2023-03-28T12:46:56.968Z,11.93
2023-03-28T12:49:47.469Z,11.76
2023-03-28T12:52:23.769Z,11.71
2023-03-28T12:54:58.912Z,11.27
2023-03-28T12:57:45.461Z,11.96
2023-03-28T13:00:16.601Z,12.18
2023-03-28T13:03:15.228Z,12.35
2023-03-28T13:06:02.002Z,11.45
2023-03-28T13:08:51.967Z,12.16
2023-03-28T13:11:28.522Z,12.08
2023-03-28T13:14:04.178Z,12.01
2023-03-28T13:16:56.725Z,12.29
2023-03-28T13:19:42.109Z,11.71
2023-03-28T13:22:27.473Z,11.08
2023-03-28T13:24:55.126Z,10.87
2023-03-28T13:27:33.689Z,10.69
2023-03-28T13:30:05.847Z,11.14
2023-03-28T13:32:40.376Z,10.88
2023-03-28T13:35:07.412Z,10.61
2023-03-28T13:37:43.171Z,10.67
2023-03-28T13:40:50.887Z,10.73
2023-03-28T13:43:25.188Z,11.11
2023-03-28T13:45:57.629Z,11.07
2023-03-28T13:48:38.919Z,10.69
2023-03-28T13:51:08.415Z,10.91
2023-03-28T13:53:46.994Z,10.83
2023-03-28T13:56:23.758Z,10.90
2023-03-28T13:58:56.465Z,11.24
2023-03-28T14:01:26.069Z,10.92
2023-03-28T14:03:56.123Z,11.29
2023-03-28T14:06:25.076Z,11.48
2023-03-28T14:08:54.795Z,11.97
2023-03-28T14:11:30.603Z,12.49
2023-03-28T14:14:27.659Z,12.71
2023-03-28T14:16:54.889Z,12.92
2023-03-28T14:19:26.360Z,12.22
2023-03-28T14:21:54.374Z,11.90
2023-03-28T14:24:24.495Z,12.04
2023-03-28T14:26:51.952Z,12.17
2023-03-28T14:29:20.052Z,12.41
2023-03-28T14:31:48.777Z,12.88
2023-03-28T14:34:25.764Z,13.28
2023-03-28T14:36:58.786Z,12.28
2023-03-28T14:39:31.595Z,11.80
2023-03-28T14:42:01.722Z,11.75
2023-03-28T14:44:30.253Z,11.71
2023-03-28T14:46:59.377Z,11.67
2023-03-28T14:49:28.005Z,11.59
2023-03-28T14:51:58.298Z,11.45
2023-03-28T14:54:41.711Z,12.41
2023-03-28T14:57:15.755Z,12.27
2023-03-28T14:59:45.929Z,12.32
2023-03-28T15:02:22.998Z,13.65
2023-03-28T15:04:50.558Z,13.36
2023-03-28T15:07:28.474Z,13.10
2023-03-28T15:10:23.975Z,12.71
2023-03-28T15:13:06.007Z,12.97
2023-03-28T15:15:42.299Z,13.15
2023-03-28T15:18:18.285Z,12.34
2023-03-28T15:20:49.423Z,11.87
2023-03-28T15:23:20.775Z,11.60
2023-03-28T15:25:47.716Z,11.39
2023-03-28T15:28:18.412Z,11.11
2023-03-28T15:30:47.366Z,11.29
2023-03-28T15:33:18.614Z,11.02
2023-03-28T15:35:45.851Z,10.90
2023-03-28T15:38:12.556Z,10.87
2023-03-28T15:40:42.494Z,10.76
2023-03-28T15:43:36.973Z,10.87
2023-03-28T15:46:09.820Z,10.83
2023-03-28T15:48:37.175Z,10.84
2023-03-28T15:51:07.195Z,10.85
2023-03-28T15:53:36.188Z,10.95
2023-03-28T15:56:13.216Z,10.94
2023-03-28T15:58:44.600Z,10.87
2023-03-28T16:01:28.020Z,10.73
2023-03-28T16:04:22.554Z,10.60
2023-03-28T16:06:52.794Z,10.45
2023-03-28T16:09:21.731Z,10.57
2023-03-28T16:12:11.216Z,10.55
2023-03-28T16:14:42.305Z,10.64
2023-03-28T16:17:09.236Z,10.60
2023-03-28T16:19:37.472Z,10.67
2023-03-28T16:22:04.274Z,10.52
2023-03-28T16:24:31.550Z,10.55
2023-03-28T16:26:58.369Z,10.29
2023-03-28T16:29:25.196Z,10.19
2023-03-28T16:31:52.182Z,10.33
2023-03-28T16:34:18.969Z,10.46
2023-03-28T16:36:45.990Z,10.49
2023-03-28T16:39:12.639Z,10.50
2023-03-28T16:41:39.425Z,10.42
2023-03-28T16:44:06.583Z,10.29
2023-03-28T16:46:33.872Z,10.38
2023-03-28T16:49:00.803Z,10.33
2023-03-28T16:51:27.426Z,10.32
2023-03-28T16:53:54.127Z,10.21
2023-03-28T16:56:20.958Z,10.23
2023-03-28T16:58:48.569Z,10.21
2023-03-28T17:01:19.558Z,10.21
2023-03-28T17:03:47.692Z,10.29
2023-03-28T17:06:16.518Z,10.16
2023-03-28T17:08:44.649Z,10.21
2023-03-28T17:11:13.782Z,10.21
2023-03-28T17:13:42.280Z,10.18
2023-03-28T17:16:10.838Z,10.23
2023-03-28T17:18:37.841Z,10.23
2023-03-28T17:21:15.452Z,10.21
2023-03-28T17:23:42.413Z,10.13
2023-03-28T17:26:10.809Z,10.19
2023-03-28T17:28:40.048Z,10.12
2023-03-28T17:31:11.990Z,10.15
2023-03-28T17:33:39.218Z,10.06
2023-03-28T17:36:21.025Z,10.06
2023-03-28T17:38:49.552Z,10.01
2023-03-28T17:41:16.999Z,10.06
2023-03-28T17:43:43.973Z,9.97
2023-03-28T17:46:11.519Z,9.95
2023-03-28T17:48:39.189Z,9.97
2023-03-28T17:51:06.453Z,9.95
2023-03-28T17:53:33.485Z,9.91
2023-03-28T17:58:39.827Z,9.80
2023-03-28T18:01:18.961Z,9.81
2023-03-28T18:03:47.286Z,9.77
2023-03-28T18:06:14.734Z,9.73
2023-03-28T18:08:48.806Z,9.71
2023-03-28T18:11:29.294Z,9.73
2023-03-28T18:13:59.093Z,9.69
2023-03-28T18:16:29.421Z,9.64
2023-03-28T18:18:57.749Z,9.63
2023-03-28T18:21:33.948Z,9.61
2023-03-28T18:24:00.796Z,9.63
2023-03-28T18:29:11.710Z,9.60
2023-03-28T18:34:23.457Z,9.58
2023-03-28T18:42:22.432Z,9.36
2023-03-28T18:44:50.504Z,9.33
2023-03-28T18:47:20.668Z,9.27
2023-03-28T18:49:50.832Z,9.19
2023-03-28T18:52:17.767Z,9.01
2023-03-28T18:57:28.897Z,9.05
2023-03-28T19:02:41.914Z,9.23
2023-03-28T19:08:02.373Z,8.91
2023-03-28T19:10:29.125Z,8.78
2023-03-28T19:12:56.308Z,8.79
2023-03-28T19:15:24.849Z,8.71
2023-03-28T19:17:53.655Z,8.57
2023-03-28T19:20:32.641Z,8.31
2023-03-28T19:22:59.514Z,8.14
2023-03-28T19:25:28.719Z,8.07
2023-03-28T19:27:59.660Z,7.90
2023-03-28T19:30:30.813Z,7.51
2023-03-28T19:33:07.593Z,7.18
2023-03-28T19:35:34.931Z,6.75
2023-03-28T19:39:11.869Z,6.42
2023-03-28T19:41:24.896Z,6.24
2023-03-28T19:43:52.523Z,6.10
2023-03-28T19:46:28.106Z,6.11
2023-03-28T19:49:00.173Z,5.98
2023-03-28T19:51:36.454Z,5.90
2023-03-28T19:54:05.412Z,5.82
2023-03-28T19:59:13.388Z,5.83
2023-03-28T20:01:40.339Z,5.89
2023-03-28T20:04:07.833Z,5.82
2023-03-28T20:06:34.527Z,5.84
2023-03-28T20:09:01.391Z,5.80
2023-03-28T20:11:28.758Z,5.78
2023-03-28T20:13:55.658Z,5.82
2023-03-28T20:19:03.215Z,5.74
2023-03-28T20:24:12.522Z,5.80
2023-03-28T20:26:40.096Z,5.76
2023-03-28T20:29:16.437Z,5.87
2023-03-28T20:31:43.283Z,5.74
2023-03-28T20:34:10.167Z,5.80
2023-03-28T20:36:38.288Z,5.82
2023-03-28T20:39:09.122Z,5.77
2023-03-28T20:41:35.984Z,5.77
2023-03-28T20:44:07.119Z,5.71
2023-03-28T20:46:38.285Z,5.74
2023-03-28T20:49:07.939Z,5.73
2023-03-28T20:51:41.257Z,5.65
2023-03-28T20:54:12.191Z,5.66
2023-03-28T21:09:03.400Z,5.50
2023-03-28T23:18:38.655Z,5.39
